Terminal Aerodrome Forecast
Issued by NWS

Home | Current Version | Previous Version | Text Only | Print | Product List | Glossary On
Versions: 1 2 3 4 5 6 7 8 9 10 11 12 13
000
FTUS43 KAPX 202325
TAFAPN
TAF
KAPN 202325Z 2100/2124 13009KT P6SM OVC250
     FM210300 14009KT P6SM OVC200 WS020/17040KT
     FM211100 18008KT P6SM -SHRA OVC080 WS020/20040KT
     FM211300 20007KT 2SM -SHRA BR BKN008 OVC025
     FM211700 26006KT 4SM -SHRA BR OVC008
     FM212100 27006KT P6SM SCT008 BKN015=

USA.gov is the U.S. government's official web portal to all federal, state and local government web resources and services.